Hundvaag 1 weather for Nov 1996
Month no. 113
Obs.
Da.
Temp. Dew Point Precip. Wind
Speed
Wind gusts Cloud cover Press. Humidity Wind dir. Sunny OPT
01.11.1996 9,6   27,0     0       1  
02.11.1996 11,2   20,0     0          
03.11.1996 11,1   29,0     0          
04.11.1996 7,4   22,0     0          
05.11.1996 7,8   9,0     1          
06.11.1996 3,8   12,0     0          
07.11.1996 3,6   16,0     10          
08.11.1996 1,3   12,0     1       1  
09.11.1996 5,7   28,0     0       1  
10.11.1996 6,1   2,0     2          
11.11.1996 2,5   0,0     10       1  
12.11.1996 3,0   0,0     10       1  
13.11.1996 1,1   0,0     4       1  
14.11.1996 -0,4   1,0     0          
15.11.1996 9,1   11,0     0          
16.11.1996 6,2   20,0     1          
17.11.1996 6,2   14,0     0          
18.11.1996 2,6   0,0     8       1  
19.11.1996 -0,3   0,0     9       1  
20.11.1996 -1,9   0,0     0       1  
21.11.1996 1,6   4,0     3          
22.11.1996 -0,8   1,0     10       1  
23.11.1996 2,5   7,0     0          
24.11.1996 -1,1   0,0     10       1  
25.11.1996 2,4   0,0     0          
26.11.1996 0,3   0,0     10       1  
27.11.1996 -1,1   0,0     10       1  
28.11.1996 -4,5   0,0     10       1  
29.11.1996 1,8   0,0     8          
30.11.1996 -1,1   0,0     9       1  
                       
Avrg/Sum 3,2   235,0     4,2       15